Barlby, United Kingdom
Current Conditions -  °F | °C
As of 1:50 PM on Sunday 23 Nov 2014 (Local Time) from EGXU Reporting Station
Broken Clouds Broken Clouds  
Wind Chill: 45°   Ceiling: 14000
Heat Index: 48°   Visibility: 6mi
Dew Point: 41°   Wind: 8mph
Humidity: 76%   Direction: 310°NW
Pressure: 30"   Gusts: NA
Location:  53.8°N, 1.04°W
Report Text: EGXU 231350Z AUTO 31007KT 9999 // BKN140/// BKN200/// 09/05 Q1016
Loading
Personal Weather Stations






























Interactive Weather Map New forecast layout! Learn more

10-Day Weather Forecast

Advertisements
Track Severe Weather on mobile